createdAt,value
2023-04-22T00:01:03.172Z,99933.13
2023-04-22T00:04:06.131Z,99934.75
2023-04-22T00:07:08.746Z,99919.78
2023-04-22T00:10:11.794Z,99932.78
2023-04-22T00:13:14.112Z,99938.56
2023-04-22T00:16:16.661Z,99930.22
2023-04-22T00:19:18.965Z,99923.88
2023-04-22T00:22:21.368Z,99913.53
2023-04-22T00:25:23.631Z,99917.88
2023-04-22T00:28:25.917Z,99896.59
2023-04-22T00:31:28.335Z,99931.16
2023-04-22T00:34:30.868Z,99917.66
2023-04-22T00:37:33.357Z,99929.41
2023-04-22T00:40:35.726Z,99918.53
2023-04-22T00:43:38.201Z,99906.97
2023-04-22T00:46:41.156Z,99926.13
2023-04-22T00:49:43.582Z,99924.97
2023-04-22T00:52:46.035Z,99922.56
2023-04-22T00:55:48.630Z,99921.75
2023-04-22T00:58:50.997Z,99915.28
2023-04-22T01:01:54.119Z,99913.28
2023-04-22T01:04:56.715Z,99929.91
2023-04-22T01:07:59.571Z,99941.00
2023-04-22T01:11:02.734Z,99930.59
2023-04-22T01:14:05.405Z,99933.66
2023-04-22T01:17:10.218Z,99932.41
2023-04-22T01:20:12.904Z,99939.44
2023-04-22T01:23:20.246Z,99921.97
2023-04-22T01:26:22.748Z,99939.63
2023-04-22T01:29:25.167Z,99955.16
2023-04-22T01:32:30.618Z,99952.38
2023-04-22T01:35:37.207Z,99948.47
2023-04-22T01:38:40.563Z,99954.50
2023-04-22T01:41:42.941Z,99932.56
2023-04-22T01:44:45.251Z,99922.53
2023-04-22T01:47:47.744Z,99946.34
2023-04-22T01:50:50.040Z,99941.88
2023-04-22T01:53:52.374Z,99961.97
2023-04-22T01:56:55.161Z,99948.91
2023-04-22T01:59:58.574Z,99945.28
2023-04-22T02:03:01.114Z,99951.78
2023-04-22T02:06:03.705Z,99947.53
2023-04-22T02:09:06.395Z,99942.34
2023-04-22T02:12:08.790Z,99923.59
2023-04-22T02:15:11.488Z,99939.81
2023-04-22T02:18:14.117Z,99903.03
2023-04-22T02:21:17.497Z,99938.94
2023-04-22T02:24:19.878Z,99943.66
2023-04-22T02:27:22.308Z,99933.81
2023-04-22T02:30:24.692Z,99924.47
2023-04-22T02:33:27.096Z,99932.28
2023-04-22T02:36:29.431Z,99954.75
2023-04-22T02:39:31.972Z,99943.75
2023-04-22T02:42:34.373Z,99936.94
2023-04-22T02:45:37.658Z,99935.41
2023-04-22T02:48:40.235Z,99939.84
2023-04-22T02:51:42.626Z,99929.63
2023-04-22T02:54:44.955Z,99926.78
2023-04-22T02:57:47.338Z,99936.56
2023-04-22T03:00:49.794Z,99938.63
2023-04-22T03:03:52.216Z,99945.50
2023-04-22T03:06:59.600Z,99935.41
2023-04-22T03:10:01.986Z,99932.41
2023-04-22T03:13:04.340Z,99936.25
2023-04-22T03:16:07.688Z,99936.22
2023-04-22T03:19:10.069Z,99955.81
2023-04-22T03:22:12.624Z,99932.78
2023-04-22T03:25:15.093Z,99938.59
2023-04-22T03:28:22.467Z,99947.88
2023-04-22T03:31:25.608Z,99952.63
2023-04-22T03:34:27.978Z,99920.06
2023-04-22T03:37:30.534Z,99944.63
2023-04-22T03:40:33.488Z,99955.72
2023-04-22T03:43:39.168Z,99959.69
2023-04-22T03:46:44.049Z,99954.34
2023-04-22T03:49:55.474Z,99955.31
2023-04-22T03:52:58.863Z,99946.94
2023-04-22T03:56:01.882Z,99955.88
2023-04-22T03:59:05.225Z,99939.88
2023-04-22T04:02:08.990Z,99960.63
2023-04-22T04:05:12.167Z,99968.16
2023-04-22T04:08:16.029Z,99973.63
2023-04-22T04:11:19.098Z,99966.69
2023-04-22T04:14:22.265Z,99931.88
2023-04-22T04:17:28.962Z,99961.22
2023-04-22T04:20:31.537Z,99954.72
2023-04-22T04:23:34.447Z,99958.31
2023-04-22T04:26:37.928Z,99982.41
2023-04-22T04:29:49.647Z,99954.25
2023-04-22T04:33:07.206Z,99992.03
2023-04-22T04:36:11.243Z,99990.06
2023-04-22T04:39:17.369Z,99999.38
2023-04-22T04:42:20.630Z,99972.38
2023-04-22T04:45:30.075Z,99995.16
2023-04-22T04:48:36.310Z,99998.88
2023-04-22T04:51:43.262Z,99998.25
2023-04-22T04:54:45.715Z,99998.03
2023-04-22T04:57:48.091Z,100010.53
2023-04-22T05:00:50.456Z,100004.47
2023-04-22T05:03:53.884Z,99977.84
2023-04-22T05:06:56.853Z,99992.88
2023-04-22T05:10:01.061Z,99999.34
2023-04-22T05:13:04.529Z,100006.81
2023-04-22T05:16:07.838Z,99994.81
2023-04-22T05:19:10.598Z,99997.22
2023-04-22T05:22:13.150Z,99999.22
2023-04-22T05:25:16.134Z,100014.00
2023-04-22T05:28:27.676Z,99985.75
2023-04-22T05:31:32.692Z,99993.44
2023-04-22T05:34:35.872Z,100002.50
2023-04-22T05:37:38.939Z,100000.03
2023-04-22T05:40:41.623Z,100017.28
2023-04-22T05:43:46.829Z,100012.75
2023-04-22T05:46:52.623Z,99986.34
2023-04-22T05:49:57.735Z,100000.22
2023-04-22T05:53:18.877Z,100012.97
2023-04-22T05:56:21.964Z,100004.84
2023-04-22T05:59:24.324Z,100009.75
2023-04-22T06:02:26.997Z,100003.16
2023-04-22T06:05:29.548Z,100009.13
2023-04-22T06:08:33.145Z,100012.16
2023-04-22T06:11:35.783Z,100012.94
2023-04-22T06:14:38.198Z,100030.50
2023-04-22T06:17:40.847Z,100017.69
2023-04-22T06:20:43.336Z,100017.69
2023-04-22T06:23:47.949Z,100014.66
2023-04-22T06:26:50.459Z,100011.16
2023-04-22T06:29:52.884Z,100019.34
2023-04-22T06:32:55.842Z,100020.25
2023-04-22T06:35:59.444Z,100011.34
2023-04-22T06:39:03.580Z,100012.97
2023-04-22T06:42:27.293Z,100021.88
2023-04-22T06:45:48.345Z,100001.91
2023-04-22T06:49:26.095Z,100003.09
2023-04-22T06:52:55.001Z,100010.88
2023-04-22T06:55:59.233Z,99998.69
2023-04-22T06:59:02.291Z,100000.22
2023-04-22T07:02:06.084Z,100009.84
2023-04-22T07:05:14.539Z,99997.75
2023-04-22T07:08:17.688Z,100007.09
2023-04-22T07:11:20.053Z,100000.69
2023-04-22T07:14:45.415Z,100011.06
2023-04-22T07:17:47.741Z,100012.28
2023-04-22T07:20:50.085Z,100002.16
2023-04-22T07:23:52.540Z,99997.38
2023-04-22T07:26:54.891Z,99996.78
2023-04-22T07:29:57.444Z,100001.59
2023-04-22T07:32:59.751Z,100008.00
2023-04-22T07:36:02.116Z,100021.91
2023-04-22T07:39:04.528Z,100007.69
2023-04-22T07:42:09.268Z,100002.78
2023-04-22T07:45:11.675Z,100005.56
2023-04-22T07:48:14.240Z,100015.47
2023-04-22T07:51:17.336Z,99983.84
2023-04-22T07:54:19.689Z,99991.88
2023-04-22T07:57:22.689Z,100007.25
2023-04-22T08:00:25.130Z,100014.56
2023-04-22T08:03:28.181Z,100007.63
2023-04-22T08:06:30.950Z,100007.88
2023-04-22T08:09:33.399Z,99990.72
2023-04-22T08:12:35.906Z,100006.00
2023-04-22T08:15:38.284Z,100004.28
2023-04-22T08:18:41.837Z,99994.84
2023-04-22T08:21:44.779Z,100008.13
2023-04-22T08:24:47.109Z,99996.53
2023-04-22T08:27:51.295Z,99984.28
2023-04-22T08:30:53.664Z,100001.09
2023-04-22T08:33:56.116Z,100009.91
2023-04-22T08:36:58.483Z,100011.53
2023-04-22T08:40:00.954Z,100008.97
2023-04-22T08:43:04.288Z,100004.25
2023-04-22T08:46:07.681Z,100008.94
2023-04-22T08:49:10.173Z,100009.91
2023-04-22T08:52:15.664Z,100007.19
2023-04-22T08:55:19.206Z,99990.53
2023-04-22T08:58:23.309Z,99991.81
2023-04-22T09:01:27.173Z,100010.06
2023-04-22T09:04:29.657Z,99992.75
2023-04-22T09:07:33.909Z,99993.25
2023-04-22T09:10:39.702Z,99995.19
2023-04-22T09:13:42.969Z,99985.72
2023-04-22T09:16:48.914Z,99990.38
2023-04-22T09:20:01.847Z,99982.16
2023-04-22T09:23:05.305Z,99979.31
2023-04-22T09:26:09.183Z,99998.09
2023-04-22T09:29:15.615Z,100005.78
2023-04-22T09:32:18.432Z,100003.34
2023-04-22T09:35:28.050Z,99976.91
2023-04-22T09:38:31.599Z,99976.66
2023-04-22T09:41:35.887Z,99972.13
2023-04-22T09:44:39.261Z,99968.28
2023-04-22T09:47:41.619Z,99991.00
2023-04-22T09:50:46.460Z,99988.66
2023-04-22T09:53:59.425Z,99963.16
2023-04-22T09:57:03.085Z,99952.91
2023-04-22T10:00:07.929Z,99969.22
2023-04-22T10:03:11.148Z,99966.47
2023-04-22T10:06:14.778Z,99973.69
2023-04-22T10:09:22.162Z,99959.94
2023-04-22T10:12:35.365Z,99953.69
2023-04-22T10:15:55.954Z,99943.75
2023-04-22T10:19:00.203Z,99958.00
2023-04-22T10:22:04.183Z,99942.78
2023-04-22T10:25:11.769Z,99951.84
2023-04-22T10:28:16.331Z,99945.09
2023-04-22T10:31:22.406Z,99919.13
2023-04-22T10:34:25.623Z,99950.94
2023-04-22T10:37:27.956Z,99939.41
2023-04-22T10:40:30.266Z,99935.75
2023-04-22T10:43:47.596Z,99929.34
2023-04-22T10:46:50.413Z,99949.47
2023-04-22T10:50:00.901Z,99926.63
2023-04-22T10:53:37.446Z,99949.69
2023-04-22T10:57:19.385Z,99922.38
2023-04-22T11:00:24.591Z,99954.50
2023-04-22T11:03:29.094Z,99916.97
2023-04-22T11:06:32.598Z,99917.00
2023-04-22T11:09:40.472Z,99945.13
2023-04-22T11:12:44.870Z,99932.78
2023-04-22T11:15:49.983Z,99921.41
2023-04-22T11:18:54.242Z,99909.72
2023-04-22T11:21:58.690Z,99933.56
2023-04-22T11:25:01.924Z,99911.38
2023-04-22T11:28:05.425Z,99905.94
2023-04-22T11:31:12.165Z,99918.28
2023-04-22T11:34:14.608Z,99904.69
2023-04-22T11:37:19.587Z,99931.44
2023-04-22T11:40:42.086Z,99921.00
2023-04-22T11:43:47.862Z,99914.94
2023-04-22T11:46:50.321Z,99915.88
2023-04-22T11:50:00.301Z,99928.53
2023-04-22T11:53:04.688Z,99926.84
2023-04-22T11:56:07.142Z,99913.22
2023-04-22T11:59:10.334Z,99910.50
2023-04-22T12:02:12.744Z,99899.03
2023-04-22T12:05:15.170Z,99907.63
2023-04-22T12:08:19.243Z,99910.66
2023-04-22T12:11:21.987Z,99903.06
2023-04-22T12:14:36.498Z,99909.69
2023-04-22T12:17:39.432Z,99894.97
2023-04-22T12:20:42.117Z,99908.81
2023-04-22T12:23:45.145Z,99909.00
2023-04-22T12:26:47.466Z,99896.63
2023-04-22T12:29:56.447Z,99897.97
2023-04-22T12:32:58.781Z,99900.75
2023-04-22T12:36:01.084Z,99876.66
2023-04-22T12:39:04.891Z,99891.31
2023-04-22T12:42:08.436Z,99899.53
2023-04-22T12:45:11.899Z,99901.00
2023-04-22T12:48:15.514Z,99868.25
2023-04-22T12:51:17.924Z,99890.28
2023-04-22T12:54:21.089Z,99886.69
2023-04-22T12:57:23.524Z,99888.75
2023-04-22T13:00:26.091Z,99879.63
2023-04-22T13:03:28.695Z,99857.84
2023-04-22T13:06:32.705Z,99875.63
2023-04-22T13:09:35.155Z,99880.25
2023-04-22T13:12:39.050Z,99871.91
2023-04-22T13:15:41.610Z,99867.25
2023-04-22T13:18:44.005Z,99864.97
2023-04-22T13:21:47.277Z,99866.53
2023-04-22T13:24:49.628Z,99861.41
2023-04-22T13:27:51.978Z,99855.38
2023-04-22T13:30:55.934Z,99859.41
2023-04-22T13:33:59.333Z,99857.25
2023-04-22T13:37:02.449Z,99862.06
2023-04-22T13:40:06.119Z,99855.84
2023-04-22T13:43:09.434Z,99861.22
2023-04-22T13:46:11.889Z,99858.63
2023-04-22T13:49:14.401Z,99849.28
2023-04-22T13:52:16.744Z,99853.97
2023-04-22T13:55:20.563Z,99834.22
2023-04-22T13:58:22.885Z,99844.47
2023-04-22T14:01:25.872Z,99854.94
2023-04-22T14:04:29.616Z,99843.56
2023-04-22T14:07:31.924Z,99849.81
2023-04-22T14:10:34.254Z,99853.59
2023-04-22T14:13:36.991Z,99832.16
2023-04-22T14:16:39.357Z,99824.53
2023-04-22T14:19:42.545Z,99852.22
2023-04-22T14:22:45.070Z,99833.31
2023-04-22T14:25:48.472Z,99844.84
2023-04-22T14:28:50.849Z,99845.59
2023-04-22T14:31:53.793Z,99824.28
2023-04-22T14:34:57.060Z,99833.75
2023-04-22T14:37:59.861Z,99841.28
2023-04-22T14:41:02.275Z,99837.34
2023-04-22T14:44:06.274Z,99833.25
2023-04-22T14:47:08.699Z,99833.94
2023-04-22T14:50:12.198Z,99829.13
2023-04-22T14:53:14.533Z,99827.09
2023-04-22T14:56:17.207Z,99835.16
2023-04-22T14:59:19.527Z,99828.13
2023-04-22T15:02:22.056Z,99798.00
2023-04-22T15:05:24.605Z,99832.75
2023-04-22T15:08:27.822Z,99825.91
2023-04-22T15:11:31.267Z,99840.47
2023-04-22T15:14:35.708Z,99832.75
2023-04-22T15:17:39.293Z,99820.81
2023-04-22T15:20:41.842Z,99823.03
2023-04-22T15:23:44.337Z,99817.19
2023-04-22T15:26:47.531Z,99837.16
2023-04-22T15:29:49.863Z,99834.34
2023-04-22T15:32:52.190Z,99834.25
2023-04-22T15:35:56.375Z,99837.44
2023-04-22T15:38:59.872Z,99842.22
2023-04-22T15:42:02.901Z,99829.47
2023-04-22T15:45:05.998Z,99835.38
2023-04-22T15:48:08.705Z,99819.34
2023-04-22T15:51:11.674Z,99825.25
2023-04-22T15:54:15.776Z,99821.13
2023-04-22T15:57:18.027Z,99835.03
2023-04-22T16:00:20.556Z,99838.88
2023-04-22T16:03:22.955Z,99836.22
2023-04-22T16:06:26.209Z,99836.53
2023-04-22T16:09:28.538Z,99833.13
2023-04-22T16:12:34.019Z,99826.84
2023-04-22T16:15:37.082Z,99808.38
2023-04-22T16:18:44.356Z,99827.38
2023-04-22T16:21:48.013Z,99832.44
2023-04-22T16:24:50.760Z,99822.28
2023-04-22T16:27:55.012Z,99835.44
2023-04-22T16:30:57.362Z,99817.47
2023-04-22T16:33:59.698Z,99810.44
2023-04-22T16:37:03.459Z,99794.09
2023-04-22T16:40:07.116Z,99807.53
2023-04-22T16:43:13.037Z,99810.91
2023-04-22T16:46:15.452Z,99802.91
2023-04-22T16:49:17.750Z,99818.69
2023-04-22T16:52:19.995Z,99811.47
2023-04-22T16:55:22.328Z,99806.78
2023-04-22T16:58:24.670Z,99810.22
2023-04-22T17:01:27.189Z,99815.94
2023-04-22T17:04:30.025Z,99803.28
2023-04-22T17:07:32.379Z,99820.03
2023-04-22T17:10:35.359Z,99816.22
2023-04-22T17:13:37.677Z,99821.09
2023-04-22T17:16:40.033Z,99827.53
2023-04-22T17:19:43.881Z,99799.91
2023-04-22T17:22:46.756Z,99804.03
2023-04-22T17:25:52.270Z,99818.00
2023-04-22T17:28:54.898Z,99789.78
2023-04-22T17:31:57.226Z,99804.03
2023-04-22T17:34:59.533Z,99810.25
2023-04-22T17:38:01.830Z,99810.41
2023-04-22T17:41:04.267Z,99797.53
2023-04-22T17:44:08.930Z,99810.41
2023-04-22T17:47:11.403Z,99815.06
2023-04-22T17:50:13.785Z,99817.44
2023-04-22T17:53:16.740Z,99803.03
2023-04-22T17:56:19.109Z,99811.44
2023-04-22T17:59:21.477Z,99822.81
2023-04-22T18:02:25.540Z,99817.25
2023-04-22T18:05:29.439Z,99841.16
2023-04-22T18:08:32.707Z,99856.00
2023-04-22T18:11:35.110Z,99849.69
2023-04-22T18:14:37.528Z,99848.19
2023-04-22T18:17:40.459Z,99834.28
2023-04-22T18:20:44.069Z,99836.22
2023-04-22T18:23:48.713Z,99851.31
2023-04-22T18:26:51.047Z,99843.03
2023-04-22T18:29:55.333Z,99853.81
2023-04-22T18:32:58.078Z,99850.59
2023-04-22T18:36:01.190Z,99875.06
2023-04-22T18:39:05.578Z,99849.31
2023-04-22T18:42:07.913Z,99845.84
2023-04-22T18:45:12.065Z,99879.66
2023-04-22T18:48:14.469Z,99856.06
2023-04-22T18:51:17.235Z,99889.41
2023-04-22T18:54:19.663Z,99873.66
2023-04-22T18:57:22.149Z,99888.19
2023-04-22T19:00:24.664Z,99879.59
2023-04-22T19:03:27.054Z,99879.59
2023-04-22T19:06:29.742Z,99862.72
2023-04-22T19:09:32.387Z,99874.84
2023-04-22T19:12:34.709Z,99879.44
2023-04-22T19:15:37.127Z,99859.28
2023-04-22T19:18:39.493Z,99883.50
2023-04-22T19:21:42.420Z,99887.84
2023-04-22T19:24:45.515Z,99884.34
2023-04-22T19:27:47.786Z,99893.50
2023-04-22T19:30:50.906Z,99869.56
2023-04-22T19:33:53.196Z,99877.38
2023-04-22T19:36:55.591Z,99881.41
2023-04-22T19:39:57.993Z,99883.25
2023-04-22T19:43:00.372Z,99862.31
2023-04-22T19:46:03.410Z,99896.22
2023-04-22T19:49:06.772Z,99864.22
2023-04-22T19:52:15.609Z,99884.91
2023-04-22T19:55:18.884Z,99884.38
2023-04-22T19:58:21.655Z,99857.47
2023-04-22T20:01:24.982Z,99862.84
2023-04-22T20:04:27.817Z,99890.25
2023-04-22T20:07:31.353Z,99893.72
2023-04-22T20:10:33.842Z,99886.72
2023-04-22T20:13:36.595Z,99883.25
2023-04-22T20:16:39.420Z,99873.03
2023-04-22T20:19:42.332Z,99856.38
2023-04-22T20:22:45.804Z,99859.88
2023-04-22T20:25:50.240Z,99884.59
2023-04-22T20:28:54.167Z,99884.34
2023-04-22T20:31:59.280Z,99869.81
2023-04-22T20:35:02.421Z,99889.16
2023-04-22T20:38:08.757Z,99889.16
2023-04-22T20:41:13.349Z,99887.00
2023-04-22T20:44:16.440Z,99876.00
2023-04-22T20:47:18.869Z,99883.78
2023-04-22T20:50:21.526Z,99887.53
2023-04-22T20:53:24.612Z,99882.97
2023-04-22T20:56:27.501Z,99882.19
2023-04-22T20:59:29.903Z,99873.53
2023-04-22T21:02:33.801Z,99857.59
2023-04-22T21:05:43.898Z,99893.03
2023-04-22T21:08:48.976Z,99866.63
2023-04-22T21:11:52.356Z,99874.91
2023-04-22T21:14:55.130Z,99882.97
2023-04-22T21:17:57.804Z,99885.13
2023-04-22T21:21:03.494Z,99851.47
2023-04-22T21:24:06.277Z,99871.59
2023-04-22T21:27:08.868Z,99872.41
2023-04-22T21:30:12.077Z,99870.41
2023-04-22T21:33:14.405Z,99860.47
2023-04-22T21:36:16.802Z,99901.00
2023-04-22T21:39:19.119Z,99879.88
2023-04-22T21:42:21.668Z,99893.91
2023-04-22T21:45:23.974Z,99909.25
2023-04-22T21:48:26.422Z,99868.56
2023-04-22T21:51:28.848Z,99889.47
2023-04-22T21:54:31.236Z,99896.16
2023-04-22T21:57:33.570Z,99875.94
2023-04-22T22:00:36.163Z,99870.47
2023-04-22T22:03:38.714Z,99906.53
2023-04-22T22:06:41.426Z,99891.91
2023-04-22T22:09:44.073Z,99868.97
2023-04-22T22:12:47.510Z,99904.72
2023-04-22T22:15:50.043Z,99892.22
2023-04-22T22:18:52.360Z,99906.66
2023-04-22T22:21:54.830Z,99910.06
2023-04-22T22:24:57.228Z,99909.47
2023-04-22T22:27:59.579Z,99902.59
2023-04-22T22:31:02.639Z,99905.72
2023-04-22T22:34:05.044Z,99901.88
2023-04-22T22:37:07.381Z,99905.78
2023-04-22T22:40:10.358Z,99918.34
2023-04-22T22:43:13.627Z,99915.56
2023-04-22T22:46:16.083Z,99911.94
2023-04-22T22:49:18.444Z,99907.34
2023-04-22T22:52:20.898Z,99907.69
2023-04-22T22:55:23.264Z,99888.56
2023-04-22T22:58:25.663Z,99918.88
2023-04-22T23:01:27.979Z,99923.06
2023-04-22T23:04:30.537Z,99915.31
2023-04-22T23:07:33.276Z,99918.22
2023-04-22T23:10:35.866Z,99920.34
2023-04-22T23:13:38.191Z,99915.47
2023-04-22T23:16:40.549Z,99928.69
2023-04-22T23:19:44.652Z,99904.47
2023-04-22T23:22:49.677Z,99897.66
2023-04-22T23:25:53.688Z,99924.75
2023-04-22T23:28:56.191Z,99895.84
2023-04-22T23:32:03.553Z,99915.91
2023-04-22T23:35:07.880Z,99922.84
2023-04-22T23:38:11.806Z,99921.75
2023-04-22T23:41:14.192Z,99903.25
2023-04-22T23:44:16.581Z,99907.22
2023-04-22T23:47:19.213Z,99910.28
2023-04-22T23:50:22.808Z,99906.47
2023-04-22T23:53:25.155Z,99882.19
2023-04-22T23:56:27.905Z,99918.22
2023-04-22T23:59:31.154Z,99924.38
